Portada
Imágenes satélite Pronóstico 15 díasClimaPredicción Marítima Ciclones Rayo AeropuertosFAQ Noticias Acerca
El tiempo : Europa África América del Norte América del Sur Asia Australia-Oceanía Otros
Idiomas Contacto

Viru-Viru, Bolivia

latitud: 17-38S, longitud: 063-08W, altitud: 373 m


METAR: SLVR 220400Z 26005KT 9999 NSC 19/15 Q1014
TAF: SLVR 212255Z 2200/2224 34007KT 9999 NSC TX32/2219Z TN17/2210Z TEMPO 2215/2219 BKN030

Hora: 00:11 (04:11 UTC)

Observación

El informe se hizo hace 11 minutos, a las 04:00 UTC  
Viento 05 kt del oeste
Temperatura 19°C
Humedad 78%
Presión 1014 hPa
Visibilidad 10 km o más

Cambiar las unidades

Pronóstico

El informe se hizo hace 05 horas y 16 minutos, a las 22:55 UTC  
Pronóstico válido del 22 a las 00 UTC al 22 a las 24 UTC
Viento 07 kt del norte-noroeste
Visibilidad 10 km o más
Temporalmente
del 22 a las 15 UTC al 22 a las 19 UTC
Cielo nuboso a una altura de 3000 ft
La información que se ofrece en estas páginas está sujeta a una cláusula de exención de responsabilidad
El tiempo : Europa África América del Norte América del Sur Asia Australia-Oceanía Otros
Imágenes satélite Pronóstico 15 díasClimaPredicción Marítima Ciclones Rayo AeropuertosFAQ Idiomas Contacto Noticias Acerca